sensor_id;sensor_type;location;lat;lon;timestamp;P1;durP1;ratioP1;P2;durP2;ratioP2
46597;SDS011;32318;48.858;8.252;2023-02-08T00:00:44;22.60;;;8.23;;
46597;SDS011;32318;48.858;8.252;2023-02-08T00:08:45;24.63;;;8.40;;
46597;SDS011;32318;48.858;8.252;2023-02-08T00:16:46;22.50;;;8.00;;
46597;SDS011;32318;48.858;8.252;2023-02-08T00:24:46;19.67;;;7.68;;
46597;SDS011;32318;48.858;8.252;2023-02-08T00:32:46;15.75;;;6.32;;
46597;SDS011;32318;48.858;8.252;2023-02-08T00:40:46;17.27;;;6.72;;
46597;SDS011;32318;48.858;8.252;2023-02-08T00:48:47;18.73;;;7.18;;
46597;SDS011;32318;48.858;8.252;2023-02-08T00:56:47;20.52;;;7.63;;
46597;SDS011;32318;48.858;8.252;2023-02-08T01:04:47;19.25;;;7.13;;
46597;SDS011;32318;48.858;8.252;2023-02-08T01:12:47;21.77;;;8.52;;
46597;SDS011;32318;48.858;8.252;2023-02-08T01:20:48;16.98;;;6.35;;
46597;SDS011;32318;48.858;8.252;2023-02-08T01:28:48;19.85;;;7.78;;
46597;SDS011;32318;48.858;8.252;2023-02-08T01:36:49;17.15;;;6.38;;
46597;SDS011;32318;48.858;8.252;2023-02-08T01:53:14;26.73;;;8.45;;
46597;SDS011;32318;48.858;8.252;2023-02-08T02:01:15;22.50;;;7.65;;
46597;SDS011;32318;48.858;8.252;2023-02-08T02:17:27;16.00;;;6.35;;
46597;SDS011;32318;48.858;8.252;2023-02-08T02:41:50;30.50;;;9.48;;
46597;SDS011;32318;48.858;8.252;2023-02-08T02:50:18;26.30;;;7.57;;
46597;SDS011;32318;48.858;8.252;2023-02-08T02:58:24;24.40;;;9.07;;
46597;SDS011;32318;48.858;8.252;2023-02-08T03:06:40;27.00;;;8.85;;
46597;SDS011;32318;48.858;8.252;2023-02-08T03:15:14;20.13;;;7.35;;
46597;SDS011;32318;48.858;8.252;2023-02-08T03:23:32;26.42;;;7.75;;
46597;SDS011;32318;48.858;8.252;2023-02-08T03:31:46;18.90;;;6.72;;
46597;SDS011;32318;48.858;8.252;2023-02-08T03:39:56;25.40;;;9.00;;
46597;SDS011;32318;48.858;8.252;2023-02-08T03:48:02;30.70;;;9.23;;
46597;SDS011;32318;48.858;8.252;2023-02-08T03:56:16;15.07;;;4.97;;
46597;SDS011;32318;48.858;8.252;2023-02-08T04:04:20;15.80;;;5.82;;
46597;SDS011;32318;48.858;8.252;2023-02-08T04:12:22;22.35;;;9.13;;
46597;SDS011;32318;48.858;8.252;2023-02-08T04:20:22;24.65;;;9.90;;
46597;SDS011;32318;48.858;8.252;2023-02-08T04:28:22;25.48;;;9.65;;
46597;SDS011;32318;48.858;8.252;2023-02-08T04:36:22;28.02;;;9.77;;
46597;SDS011;32318;48.858;8.252;2023-02-08T04:44:23;27.70;;;9.93;;
46597;SDS011;32318;48.858;8.252;2023-02-08T04:52:23;30.92;;;11.73;;
46597;SDS011;32318;48.858;8.252;2023-02-08T05:00:23;33.15;;;11.15;;
46597;SDS011;32318;48.858;8.252;2023-02-08T05:08:24;13.77;;;5.10;;
46597;SDS011;32318;48.858;8.252;2023-02-08T05:16:25;30.27;;;10.55;;
46597;SDS011;32318;48.858;8.252;2023-02-08T05:24:25;9.57;;;4.20;;
46597;SDS011;32318;48.858;8.252;2023-02-08T05:32:25;22.65;;;8.25;;
46597;SDS011;32318;48.858;8.252;2023-02-08T05:40:26;33.08;;;11.30;;
46597;SDS011;32318;48.858;8.252;2023-02-08T05:48:26;18.70;;;7.03;;
46597;SDS011;32318;48.858;8.252;2023-02-08T05:56:27;29.35;;;5.72;;
46597;SDS011;32318;48.858;8.252;2023-02-08T06:04:27;17.73;;;5.53;;
46597;SDS011;32318;48.858;8.252;2023-02-08T06:12:27;23.65;;;6.72;;
46597;SDS011;32318;48.858;8.252;2023-02-08T06:20:28;22.08;;;7.85;;
46597;SDS011;32318;48.858;8.252;2023-02-08T06:28:28;26.70;;;8.85;;
46597;SDS011;32318;48.858;8.252;2023-02-08T06:36:28;23.67;;;8.55;;
46597;SDS011;32318;48.858;8.252;2023-02-08T06:44:29;21.93;;;6.97;;
46597;SDS011;32318;48.858;8.252;2023-02-08T06:52:29;23.92;;;8.15;;
46597;SDS011;32318;48.858;8.252;2023-02-08T07:00:29;18.65;;;6.65;;
46597;SDS011;32318;48.858;8.252;2023-02-08T07:08:30;15.55;;;6.40;;
46597;SDS011;32318;48.858;8.252;2023-02-08T07:16:31;24.88;;;10.30;;
46597;SDS011;32318;48.858;8.252;2023-02-08T07:24:35;18.52;;;7.95;;
46597;SDS011;32318;48.858;8.252;2023-02-08T07:32:37;29.10;;;8.37;;
46597;SDS011;32318;48.858;8.252;2023-02-08T07:40:37;10.60;;;5.35;;
46597;SDS011;32318;48.858;8.252;2023-02-08T07:48:38;18.52;;;8.02;;
46597;SDS011;32318;48.858;8.252;2023-02-08T07:56:38;27.52;;;10.23;;
46597;SDS011;32318;48.858;8.252;2023-02-08T08:04:39;19.40;;;7.32;;
46597;SDS011;32318;48.858;8.252;2023-02-08T08:12:39;31.20;;;11.15;;
46597;SDS011;32318;48.858;8.252;2023-02-08T08:20:39;20.83;;;7.30;;
46597;SDS011;32318;48.858;8.252;2023-02-08T08:28:40;14.05;;;5.47;;
46597;SDS011;32318;48.858;8.252;2023-02-08T08:36:41;18.52;;;6.80;;
46597;SDS011;32318;48.858;8.252;2023-02-08T08:44:41;20.65;;;4.68;;
46597;SDS011;32318;48.858;8.252;2023-02-08T08:52:41;28.23;;;10.63;;
46597;SDS011;32318;48.858;8.252;2023-02-08T09:00:41;20.75;;;6.78;;
46597;SDS011;32318;48.858;8.252;2023-02-08T09:08:43;27.13;;;7.70;;
46597;SDS011;32318;48.858;8.252;2023-02-08T09:16:43;26.48;;;11.18;;
46597;SDS011;32318;48.858;8.252;2023-02-08T09:24:46;22.55;;;8.40;;
46597;SDS011;32318;48.858;8.252;2023-02-08T09:32:47;21.10;;;7.55;;
46597;SDS011;32318;48.858;8.252;2023-02-08T09:41:01;35.47;;;13.18;;
46597;SDS011;32318;48.858;8.252;2023-02-08T09:49:15;17.75;;;7.32;;
46597;SDS011;32318;48.858;8.252;2023-02-08T09:57:21;38.55;;;10.23;;
46597;SDS011;32318;48.858;8.252;2023-02-08T10:05:25;17.15;;;7.40;;
46597;SDS011;32318;48.858;8.252;2023-02-08T10:13:32;21.60;;;7.80;;
46597;SDS011;32318;48.858;8.252;2023-02-08T10:30:12;34.45;;;11.90;;
46597;SDS011;32318;48.858;8.252;2023-02-08T10:54:30;18.25;;;7.88;;
46597;SDS011;32318;48.858;8.252;2023-02-08T11:02:36;14.05;;;5.28;;
46597;SDS011;32318;48.858;8.252;2023-02-08T11:10:40;20.42;;;7.25;;
46597;SDS011;32318;48.858;8.252;2023-02-08T11:18:48;16.38;;;5.65;;
46597;SDS011;32318;48.858;8.252;2023-02-08T11:35:51;14.70;;;4.00;;
46597;SDS011;32318;48.858;8.252;2023-02-08T11:43:58;24.98;;;5.95;;
46597;SDS011;32318;48.858;8.252;2023-02-08T11:52:04;31.05;;;8.18;;
46597;SDS011;32318;48.858;8.252;2023-02-08T12:00:17;19.63;;;7.38;;
46597;SDS011;32318;48.858;8.252;2023-02-08T12:08:30;21.95;;;6.22;;
46597;SDS011;32318;48.858;8.252;2023-02-08T12:25:01;19.13;;;7.35;;
46597;SDS011;32318;48.858;8.252;2023-02-08T13:06:19;15.50;;;5.57;;
46597;SDS011;32318;48.858;8.252;2023-02-08T13:14:25;15.03;;;5.03;;
46597;SDS011;32318;48.858;8.252;2023-02-08T13:22:33;13.50;;;5.78;;
46597;SDS011;32318;48.858;8.252;2023-02-08T13:30:36;17.27;;;6.30;;
46597;SDS011;32318;48.858;8.252;2023-02-08T13:38:38;21.92;;;7.57;;
46597;SDS011;32318;48.858;8.252;2023-02-08T13:46:44;9.45;;;4.13;;
46597;SDS011;32318;48.858;8.252;2023-02-08T13:54:56;25.83;;;7.27;;
46597;SDS011;32318;48.858;8.252;2023-02-08T14:03:28;15.75;;;5.25;;
46597;SDS011;32318;48.858;8.252;2023-02-08T14:11:49;16.10;;;5.53;;
46597;SDS011;32318;48.858;8.252;2023-02-08T14:20:03;17.27;;;6.90;;
46597;SDS011;32318;48.858;8.252;2023-02-08T14:28:05;22.45;;;5.20;;
46597;SDS011;32318;48.858;8.252;2023-02-08T14:36:20;14.32;;;6.43;;
46597;SDS011;32318;48.858;8.252;2023-02-08T14:52:43;15.20;;;5.97;;
46597;SDS011;32318;48.858;8.252;2023-02-08T15:00:51;29.90;;;7.68;;
46597;SDS011;32318;48.858;8.252;2023-02-08T15:08:53;12.05;;;4.13;;
46597;SDS011;32318;48.858;8.252;2023-02-08T15:16:54;17.80;;;6.57;;
46597;SDS011;32318;48.858;8.252;2023-02-08T15:25:00;18.85;;;7.47;;
46597;SDS011;32318;48.858;8.252;2023-02-08T15:33:21;23.70;;;7.65;;
46597;SDS011;32318;48.858;8.252;2023-02-08T15:41:31;22.70;;;8.10;;
46597;SDS011;32318;48.858;8.252;2023-02-08T15:49:34;22.58;;;8.57;;
46597;SDS011;32318;48.858;8.252;2023-02-08T15:57:38;19.92;;;7.30;;
46597;SDS011;32318;48.858;8.252;2023-02-08T16:05:49;23.00;;;7.88;;
46597;SDS011;32318;48.858;8.252;2023-02-08T16:13:53;23.45;;;7.47;;
46597;SDS011;32318;48.858;8.252;2023-02-08T16:22:14;22.50;;;7.82;;
46597;SDS011;32318;48.858;8.252;2023-02-08T16:30:21;22.50;;;7.77;;
46597;SDS011;32318;48.858;8.252;2023-02-08T16:38:23;24.77;;;8.15;;
46597;SDS011;32318;48.858;8.252;2023-02-08T16:46:23;22.90;;;7.72;;
46597;SDS011;32318;48.858;8.252;2023-02-08T16:54:25;23.60;;;7.22;;
46597;SDS011;32318;48.858;8.252;2023-02-08T17:02:25;21.13;;;6.70;;
46597;SDS011;32318;48.858;8.252;2023-02-08T17:10:27;19.33;;;5.75;;
46597;SDS011;32318;48.858;8.252;2023-02-08T17:18:31;17.98;;;6.78;;
46597;SDS011;32318;48.858;8.252;2023-02-08T17:26:33;21.85;;;6.97;;
46597;SDS011;32318;48.858;8.252;2023-02-08T17:34:36;24.17;;;7.37;;
46597;SDS011;32318;48.858;8.252;2023-02-08T17:42:38;23.70;;;8.00;;
46597;SDS011;32318;48.858;8.252;2023-02-08T17:50:40;24.10;;;8.82;;
46597;SDS011;32318;48.858;8.252;2023-02-08T17:58:42;24.95;;;7.82;;
46597;SDS011;32318;48.858;8.252;2023-02-08T18:06:43;19.88;;;6.43;;
46597;SDS011;32318;48.858;8.252;2023-02-08T18:14:43;31.88;;;7.43;;
46597;SDS011;32318;48.858;8.252;2023-02-08T18:22:44;36.63;;;19.85;;
46597;SDS011;32318;48.858;8.252;2023-02-08T18:30:44;17.85;;;7.13;;
46597;SDS011;32318;48.858;8.252;2023-02-08T18:38:47;32.15;;;10.85;;
46597;SDS011;32318;48.858;8.252;2023-02-08T18:46:51;33.42;;;12.77;;
46597;SDS011;32318;48.858;8.252;2023-02-08T18:54:51;26.08;;;8.70;;
46597;SDS011;32318;48.858;8.252;2023-02-08T19:02:52;26.58;;;9.07;;
46597;SDS011;32318;48.858;8.252;2023-02-08T19:10:52;36.22;;;11.35;;
46597;SDS011;32318;48.858;8.252;2023-02-08T19:18:52;39.58;;;9.80;;
46597;SDS011;32318;48.858;8.252;2023-02-08T19:26:55;31.73;;;11.73;;
46597;SDS011;32318;48.858;8.252;2023-02-08T19:34:55;40.38;;;11.48;;
46597;SDS011;32318;48.858;8.252;2023-02-08T19:42:56;29.08;;;11.00;;
46597;SDS011;32318;48.858;8.252;2023-02-08T19:50:57;36.97;;;11.48;;
46597;SDS011;32318;48.858;8.252;2023-02-08T19:58:59;30.58;;;10.27;;
46597;SDS011;32318;48.858;8.252;2023-02-08T20:07:03;29.13;;;11.73;;
46597;SDS011;32318;48.858;8.252;2023-02-08T20:15:05;27.58;;;10.57;;
46597;SDS011;32318;48.858;8.252;2023-02-08T20:23:05;35.90;;;11.88;;
46597;SDS011;32318;48.858;8.252;2023-02-08T20:31:07;32.65;;;11.80;;
46597;SDS011;32318;48.858;8.252;2023-02-08T20:39:10;29.38;;;11.00;;
46597;SDS011;32318;48.858;8.252;2023-02-08T20:47:12;33.42;;;11.30;;
46597;SDS011;32318;48.858;8.252;2023-02-08T20:55:15;28.52;;;11.32;;
46597;SDS011;32318;48.858;8.252;2023-02-08T21:03:15;37.53;;;12.43;;
46597;SDS011;32318;48.858;8.252;2023-02-08T21:11:16;34.72;;;12.00;;
46597;SDS011;32318;48.858;8.252;2023-02-08T21:19:25;32.47;;;12.43;;
46597;SDS011;32318;48.858;8.252;2023-02-08T21:27:56;36.08;;;13.00;;
46597;SDS011;32318;48.858;8.252;2023-02-08T21:36:42;41.58;;;13.05;;
46597;SDS011;32318;48.858;8.252;2023-02-08T21:44:42;33.27;;;12.60;;
46597;SDS011;32318;48.858;8.252;2023-02-08T21:52:42;39.40;;;13.30;;
46597;SDS011;32318;48.858;8.252;2023-02-08T22:01:01;34.13;;;13.20;;
46597;SDS011;32318;48.858;8.252;2023-02-08T22:09:02;39.17;;;13.80;;
46597;SDS011;32318;48.858;8.252;2023-02-08T22:17:02;39.00;;;13.80;;
46597;SDS011;32318;48.858;8.252;2023-02-08T22:25:06;42.63;;;14.52;;
46597;SDS011;32318;48.858;8.252;2023-02-08T22:33:06;35.55;;;13.80;;
46597;SDS011;32318;48.858;8.252;2023-02-08T22:41:13;43.28;;;14.57;;
46597;SDS011;32318;48.858;8.252;2023-02-08T22:49:15;41.50;;;14.55;;
46597;SDS011;32318;48.858;8.252;2023-02-08T22:57:15;40.67;;;14.52;;
46597;SDS011;32318;48.858;8.252;2023-02-08T23:05:15;37.33;;;14.30;;
46597;SDS011;32318;48.858;8.252;2023-02-08T23:13:16;43.47;;;15.07;;
46597;SDS011;32318;48.858;8.252;2023-02-08T23:21:17;41.33;;;14.35;;
46597;SDS011;32318;48.858;8.252;2023-02-08T23:29:19;37.90;;;14.52;;
46597;SDS011;32318;48.858;8.252;2023-02-08T23:37:19;51.83;;;16.95;;
46597;SDS011;32318;48.858;8.252;2023-02-08T23:45:19;43.42;;;15.82;;
46597;SDS011;32318;48.858;8.252;2023-02-08T23:53:19;47.13;;;16.70;;
